createdAt,value
2022-10-21T00:01:47.878Z,97887.94
2022-10-21T00:03:49.188Z,97889.44
2022-10-21T00:05:50.454Z,97882.25
2022-10-21T00:07:51.754Z,97886.06
2022-10-21T00:09:53.069Z,97877.91
2022-10-21T00:11:54.363Z,97876.88
2022-10-21T00:13:55.627Z,97878.69
2022-10-21T00:15:56.958Z,97879.91
2022-10-21T00:17:58.227Z,97886.56
2022-10-21T00:19:59.506Z,97876.09
2022-10-21T00:22:00.992Z,97875.75
2022-10-21T00:24:02.340Z,97872.19
2022-10-21T00:26:03.838Z,97872.22
2022-10-21T00:28:05.095Z,97873.94
2022-10-21T00:30:06.351Z,97877.41
2022-10-21T00:32:08.012Z,97873.22
2022-10-21T00:34:09.281Z,97872.53
2022-10-21T00:36:14.759Z,97864.91
2022-10-21T00:38:16.101Z,97872.66
2022-10-21T00:40:17.402Z,97868.47
2022-10-21T00:42:18.669Z,97866.03
2022-10-21T00:44:20.010Z,97869.53
2022-10-21T00:46:21.313Z,97856.00
2022-10-21T00:48:22.594Z,97854.34
2022-10-21T00:50:23.862Z,97845.06
2022-10-21T00:52:25.294Z,97845.13
2022-10-21T00:54:26.585Z,97837.44
2022-10-21T00:56:27.882Z,97839.25
2022-10-21T00:58:29.170Z,97832.50
2022-10-21T01:00:30.443Z,97838.47
2022-10-21T01:02:31.755Z,97844.50
2022-10-21T01:04:33.030Z,97841.94
2022-10-21T01:06:34.322Z,97835.13
2022-10-21T01:08:35.623Z,97835.88
2022-10-21T01:10:36.931Z,97836.63
2022-10-21T01:12:38.218Z,97837.53
2022-10-21T01:14:39.492Z,97840.94
2022-10-21T01:16:43.105Z,97836.59
2022-10-21T01:18:47.015Z,97834.88
2022-10-21T01:20:48.331Z,97833.13
2022-10-21T01:22:49.607Z,97824.53
2022-10-21T01:24:50.879Z,97819.41
2022-10-21T01:26:52.209Z,97818.47
2022-10-21T01:28:53.478Z,97816.75
2022-10-21T01:30:54.819Z,97820.16
2022-10-21T01:32:56.087Z,97811.72
2022-10-21T01:34:57.351Z,97805.00
2022-10-21T01:36:58.637Z,97800.84
2022-10-21T01:39:01.763Z,97805.22
2022-10-21T01:41:03.090Z,97810.34
2022-10-21T01:43:04.487Z,97801.72
2022-10-21T01:45:05.812Z,97795.09
2022-10-21T01:47:07.074Z,97790.19
2022-10-21T01:49:08.356Z,97791.13
2022-10-21T01:51:09.619Z,97794.56
2022-10-21T01:53:10.969Z,97785.94
2022-10-21T01:55:12.289Z,97787.47
2022-10-21T01:57:13.559Z,97779.72
2022-10-21T01:59:14.842Z,97786.34
2022-10-21T02:01:16.242Z,97786.19
2022-10-21T02:03:17.597Z,97780.13
2022-10-21T02:05:18.854Z,97791.06
2022-10-21T02:07:20.163Z,97785.81
2022-10-21T02:09:21.488Z,97779.75
2022-10-21T02:11:22.956Z,97784.00
2022-10-21T02:13:24.264Z,97783.94
2022-10-21T02:15:25.557Z,97775.41
2022-10-21T02:17:26.843Z,97778.03
2022-10-21T02:19:28.230Z,97778.03
2022-10-21T02:21:29.599Z,97764.44
2022-10-21T02:23:30.876Z,97758.53
2022-10-21T02:25:32.147Z,97746.72
2022-10-21T02:27:33.494Z,97740.84
2022-10-21T02:29:34.786Z,97734.97
2022-10-21T02:31:36.054Z,97730.00
2022-10-21T02:33:37.514Z,97731.03
2022-10-21T02:35:38.791Z,97729.44
2022-10-21T02:39:46.310Z,97731.34
2022-10-21T02:41:47.583Z,97729.72
2022-10-21T02:43:48.854Z,97734.72
2022-10-21T02:45:50.168Z,97738.84
2022-10-21T02:47:51.484Z,97736.19
2022-10-21T02:49:52.822Z,97726.78
2022-10-21T02:51:54.090Z,97738.69
2022-10-21T02:53:55.356Z,97735.28
2022-10-21T02:55:56.627Z,97732.72
2022-10-21T02:57:58.142Z,97736.97
2022-10-21T02:59:59.432Z,97734.34
2022-10-21T03:02:00.710Z,97737.75
2022-10-21T03:04:02.000Z,97740.31
2022-10-21T03:06:03.425Z,97737.75
2022-10-21T03:08:04.745Z,97748.81
2022-10-21T03:10:06.083Z,97741.22
2022-10-21T03:12:07.367Z,97741.22
2022-10-21T03:14:08.642Z,97736.91
2022-10-21T03:16:09.969Z,97736.91
2022-10-21T03:18:11.250Z,97735.19
2022-10-21T03:20:12.568Z,97743.72
2022-10-21T03:22:13.839Z,97734.34
2022-10-21T03:24:19.886Z,97729.22
2022-10-21T03:26:29.531Z,97721.56
2022-10-21T03:28:30.797Z,97721.56
2022-10-21T03:30:32.090Z,97714.00
2022-10-21T03:32:33.390Z,97702.97
2022-10-21T03:34:34.661Z,97696.22
2022-10-21T03:36:35.953Z,97694.53
2022-10-21T03:38:37.288Z,97698.66
2022-10-21T03:40:38.567Z,97688.34
2022-10-21T03:42:40.344Z,97690.91
2022-10-21T03:44:41.930Z,97685.84
2022-10-21T03:46:43.198Z,97687.56
2022-10-21T03:48:44.466Z,97683.38
2022-10-21T03:50:45.736Z,97690.19
2022-10-21T03:52:47.218Z,97680.81
2022-10-21T03:54:49.223Z,97674.00
2022-10-21T03:56:50.498Z,97670.53
2022-10-21T03:58:56.255Z,97681.59
2022-10-21T04:00:59.742Z,97675.56
2022-10-21T04:03:01.031Z,97671.28
2022-10-21T04:05:02.350Z,97658.50
2022-10-21T04:07:03.623Z,97659.41
2022-10-21T04:09:05.027Z,97664.63
2022-10-21T04:11:06.321Z,97647.66
2022-10-21T04:13:07.607Z,97643.47
2022-10-21T04:15:08.887Z,97649.47
2022-10-21T04:17:10.200Z,97652.88
2022-10-21T04:19:11.459Z,97642.81
2022-10-21T04:21:12.789Z,97644.53
2022-10-21T04:23:14.136Z,97647.97
2022-10-21T04:25:15.447Z,97652.16
2022-10-21T04:27:16.750Z,97643.69
2022-10-21T04:29:18.062Z,97632.59
2022-10-21T04:31:19.351Z,97636.75
2022-10-21T04:33:20.617Z,97635.91
2022-10-21T04:35:21.929Z,97640.31
2022-10-21T04:37:23.198Z,97632.72
2022-10-21T04:39:24.508Z,97631.97
2022-10-21T04:41:25.766Z,97630.28
2022-10-21T04:43:27.109Z,97629.44
2022-10-21T04:45:28.474Z,97631.97
2022-10-21T04:47:29.780Z,97632.84
2022-10-21T04:49:31.037Z,97621.59
2022-10-21T04:53:38.474Z,97615.56
2022-10-21T04:55:40.305Z,97602.69
2022-10-21T04:57:42.756Z,97596.63
2022-10-21T04:59:44.045Z,97595.78
2022-10-21T05:01:45.304Z,97577.88
2022-10-21T05:03:46.574Z,97481.03
2022-10-21T05:05:47.851Z,97590.47
2022-10-21T05:07:49.127Z,97599.88
2022-10-21T05:09:50.441Z,97593.06
2022-10-21T05:11:51.705Z,97587.84
2022-10-21T05:13:52.996Z,97578.50
2022-10-21T05:15:54.307Z,97574.22
2022-10-21T05:17:55.622Z,97571.75
2022-10-21T05:19:56.923Z,97589.66
2022-10-21T05:21:58.217Z,97578.72
2022-10-21T05:23:59.525Z,97568.59
2022-10-21T05:26:00.825Z,97576.28
2022-10-21T05:28:02.127Z,97577.22
2022-10-21T05:30:04.347Z,97579.84
2022-10-21T05:32:05.660Z,97580.69
2022-10-21T05:34:06.938Z,97586.56
2022-10-21T05:36:08.699Z,97599.34
2022-10-21T05:38:09.989Z,97595.94
2022-10-21T05:40:11.258Z,97589.13
2022-10-21T05:42:12.522Z,97588.25
2022-10-21T05:44:13.835Z,97584.03
2022-10-21T05:46:15.160Z,97589.19
2022-10-21T05:48:19.554Z,97582.34
2022-10-21T05:50:20.886Z,97583.25
2022-10-21T05:52:22.175Z,97575.59
2022-10-21T05:54:23.461Z,97582.50
2022-10-21T05:56:24.955Z,97573.19
2022-10-21T05:58:26.226Z,97568.19
2022-10-21T06:00:27.497Z,97574.16
2022-10-21T06:02:28.803Z,97568.28
2022-10-21T06:04:31.335Z,97578.47
2022-10-21T06:06:34.133Z,97581.91
2022-10-21T06:08:35.553Z,97590.44
2022-10-21T06:10:36.875Z,97584.50
2022-10-21T06:12:38.193Z,97589.63
2022-10-21T06:14:39.481Z,97575.94
2022-10-21T06:16:40.759Z,97579.28
2022-10-21T06:18:42.042Z,97581.81
2022-10-21T06:20:43.319Z,97581.75
2022-10-21T06:22:44.642Z,97587.66
2022-10-21T06:24:45.904Z,97578.31
2022-10-21T06:26:47.207Z,97581.75
2022-10-21T06:28:48.539Z,97573.19
2022-10-21T06:30:49.830Z,97577.47
2022-10-21T06:32:51.426Z,97574.06
2022-10-21T06:34:52.702Z,97577.47
2022-10-21T06:36:53.978Z,97568.88
2022-10-21T06:38:55.315Z,97577.09
2022-10-21T06:40:56.622Z,97578.13
2022-10-21T06:42:57.905Z,97586.72
2022-10-21T06:45:00.317Z,97577.44
2022-10-21T06:47:01.937Z,97576.59
2022-10-21T06:49:03.266Z,97566.41
2022-10-21T06:51:04.544Z,97568.97
2022-10-21T06:53:05.881Z,97567.09
2022-10-21T06:55:07.146Z,97573.03
2022-10-21T06:57:08.406Z,97584.19
2022-10-21T06:59:09.694Z,97578.16
2022-10-21T07:01:21.398Z,97577.22
2022-10-21T07:03:32.227Z,97578.84
2022-10-21T07:05:33.514Z,97573.78
2022-10-21T07:07:34.841Z,97574.72
2022-10-21T07:09:36.222Z,97576.44
2022-10-21T07:11:37.549Z,97574.72
2022-10-21T07:13:38.832Z,97588.34
2022-10-21T07:15:40.138Z,97584.91
2022-10-21T07:17:41.703Z,97590.06
2022-10-21T07:19:43.230Z,97581.63
2022-10-21T07:21:44.644Z,97579.09
2022-10-21T07:23:45.954Z,97573.13
2022-10-21T07:25:47.250Z,97568.84
2022-10-21T07:27:48.858Z,97570.47
2022-10-21T07:29:50.341Z,97570.47
2022-10-21T07:31:51.822Z,97571.34
2022-10-21T07:33:53.190Z,97576.44
2022-10-21T07:35:54.522Z,97577.31
2022-10-21T07:37:55.795Z,97581.47
2022-10-21T07:39:57.071Z,97572.03
2022-10-21T07:41:58.408Z,97568.59
2022-10-21T07:43:59.719Z,97577.13
2022-10-21T07:46:03.190Z,97560.97
2022-10-21T07:48:07.383Z,97567.69
2022-10-21T07:50:08.723Z,97554.91
2022-10-21T07:52:10.078Z,97565.88
2022-10-21T07:54:11.391Z,97578.50
2022-10-21T07:56:12.701Z,97575.16
2022-10-21T07:58:13.979Z,97574.81
2022-10-21T08:00:15.293Z,97573.69
2022-10-21T08:02:16.566Z,97562.59
2022-10-21T08:04:17.889Z,97566.09
2022-10-21T08:06:19.295Z,97569.78
2022-10-21T08:08:23.650Z,97570.84
2022-10-21T08:10:24.937Z,97580.75
2022-10-21T08:12:26.211Z,97574.34
2022-10-21T08:14:27.482Z,97577.97
2022-10-21T08:16:28.794Z,97568.78
2022-10-21T08:18:30.143Z,97572.22
2022-10-21T08:20:31.421Z,97471.56
2022-10-21T08:22:32.690Z,97576.34
2022-10-21T08:24:37.309Z,97579.75
2022-10-21T08:26:41.172Z,97583.19
2022-10-21T08:28:42.475Z,97578.31
2022-10-21T08:30:43.902Z,97567.59
2022-10-21T08:32:45.195Z,97557.63
2022-10-21T08:34:46.511Z,97566.34
2022-10-21T08:36:47.848Z,97555.41
2022-10-21T08:38:49.159Z,97557.28
2022-10-21T08:40:53.499Z,97560.81
2022-10-21T08:42:56.997Z,97548.97
2022-10-21T08:44:58.255Z,97556.72
2022-10-21T08:46:59.544Z,97561.09
2022-10-21T08:49:00.834Z,97554.38
2022-10-21T08:51:02.110Z,97554.47
2022-10-21T08:53:03.471Z,97544.34
2022-10-21T08:55:04.799Z,97531.69
2022-10-21T08:57:06.070Z,97533.50
2022-10-21T08:59:07.383Z,97542.09
2022-10-21T09:01:08.994Z,97540.66
2022-10-21T09:03:10.291Z,97541.81
2022-10-21T09:05:11.619Z,97549.38
2022-10-21T09:07:12.912Z,97394.69
2022-10-21T09:09:14.499Z,97535.34
2022-10-21T09:11:19.621Z,97523.06
2022-10-21T09:13:20.947Z,97518.78
2022-10-21T09:15:22.207Z,97514.81
2022-10-21T09:17:23.543Z,97502.78
2022-10-21T09:19:24.846Z,97506.06
2022-10-21T09:21:26.102Z,97491.53
2022-10-21T09:23:27.420Z,97491.38
2022-10-21T09:25:28.710Z,97490.16
2022-10-21T09:27:50.958Z,97494.06
2022-10-21T09:29:51.466Z,97483.59
2022-10-21T09:31:57.264Z,97492.81
2022-10-21T09:33:59.878Z,97485.00
2022-10-21T09:36:01.177Z,97484.94
2022-10-21T09:38:02.466Z,97490.94
2022-10-21T09:40:03.790Z,97482.34
2022-10-21T09:42:13.509Z,97473.84
2022-10-21T09:44:24.492Z,97467.38
2022-10-21T09:46:25.774Z,97467.28
2022-10-21T09:48:27.121Z,97462.28
2022-10-21T09:50:28.443Z,97459.88
2022-10-21T09:52:29.758Z,97465.84
2022-10-21T09:54:31.060Z,97456.63
2022-10-21T09:56:32.322Z,97456.53
2022-10-21T09:58:34.867Z,97459.09
2022-10-21T10:00:36.173Z,97466.09
2022-10-21T10:02:37.719Z,97466.31
2022-10-21T10:04:39.301Z,97473.22
2022-10-21T10:06:40.619Z,97476.50
2022-10-21T10:08:42.038Z,97476.44
2022-10-21T10:10:43.499Z,97488.41
2022-10-21T10:12:44.823Z,97480.06
2022-10-21T10:14:46.125Z,97303.81
2022-10-21T10:16:47.449Z,97476.91
2022-10-21T10:18:48.731Z,97480.31
2022-10-21T10:20:53.061Z,97480.88
2022-10-21T10:22:58.279Z,97476.38
2022-10-21T10:24:59.562Z,97491.56
2022-10-21T10:27:00.838Z,97489.72
2022-10-21T10:29:02.113Z,97487.03
2022-10-21T10:31:03.607Z,97491.19
2022-10-21T10:33:04.875Z,97485.13
2022-10-21T10:35:06.222Z,97479.88
2022-10-21T10:37:07.548Z,97480.41
2022-10-21T10:39:08.842Z,97486.97
2022-10-21T10:41:10.134Z,97495.28
2022-10-21T10:43:11.454Z,97498.69
2022-10-21T10:45:12.947Z,97494.41
2022-10-21T10:47:14.239Z,97487.53
2022-10-21T10:49:15.727Z,97494.31
2022-10-21T10:51:17.007Z,97486.59
2022-10-21T10:53:18.295Z,97489.22
2022-10-21T10:55:19.633Z,97490.19
2022-10-21T10:57:20.981Z,97486.22
2022-10-21T10:59:23.592Z,97489.13
2022-10-21T11:01:24.890Z,97501.31
2022-10-21T11:03:26.431Z,97487.03
2022-10-21T11:05:27.810Z,97494.84
2022-10-21T11:07:29.134Z,97498.38
2022-10-21T11:09:30.448Z,97497.63
2022-10-21T11:11:31.774Z,97493.41
2022-10-21T11:13:41.828Z,97492.53
2022-10-21T11:15:43.485Z,97497.63
2022-10-21T11:17:44.772Z,97513.88
2022-10-21T11:19:46.051Z,97507.13
2022-10-21T11:21:47.666Z,97503.59
2022-10-21T11:23:48.939Z,97496.06
2022-10-21T11:25:50.211Z,97494.31
2022-10-21T11:27:51.493Z,97501.09
2022-10-21T11:29:52.975Z,97492.59
2022-10-21T11:32:10.622Z,97494.31
2022-10-21T11:34:13.925Z,97490.16
2022-10-21T11:36:15.258Z,97500.44
2022-10-21T11:38:16.535Z,97492.00
2022-10-21T11:40:18.254Z,97495.44
2022-10-21T11:42:19.529Z,97485.25
2022-10-21T11:44:20.806Z,97492.97
2022-10-21T11:46:22.094Z,97487.91
2022-10-21T11:48:23.350Z,97499.88
2022-10-21T11:50:24.623Z,97488.91
2022-10-21T11:52:29.123Z,97483.00
2022-10-21T11:54:30.418Z,97479.69
2022-10-21T11:56:31.702Z,97478.88
2022-10-21T11:58:33.000Z,97474.59
2022-10-21T12:00:34.314Z,97468.56
2022-10-21T12:02:35.716Z,97471.13
2022-10-21T12:04:37.086Z,97470.34
2022-10-21T12:06:38.632Z,97479.75
2022-10-21T12:08:45.205Z,97479.75
2022-10-21T12:10:47.794Z,97474.56
2022-10-21T12:12:49.058Z,97469.41
2022-10-21T12:14:50.384Z,97471.88
2022-10-21T12:16:51.689Z,97472.56
2022-10-21T12:18:53.030Z,97463.09
2022-10-21T12:20:54.538Z,97474.03
2022-10-21T12:22:55.801Z,97480.75
2022-10-21T12:24:57.090Z,97466.16
2022-10-21T12:26:58.368Z,97472.09
2022-10-21T12:28:59.637Z,97468.69
2022-10-21T12:31:00.921Z,97475.50
2022-10-21T12:33:02.183Z,97487.47
2022-10-21T12:35:03.450Z,97464.59
2022-10-21T12:37:04.718Z,97466.38
2022-10-21T12:39:05.995Z,97472.09
2022-10-21T12:41:07.269Z,97467.09
2022-10-21T12:43:08.531Z,97465.38
2022-10-21T12:45:10.195Z,97470.16
2022-10-21T12:47:11.472Z,97461.84
2022-10-21T12:49:12.783Z,97468.06
2022-10-21T12:51:14.457Z,97479.06
2022-10-21T12:53:15.757Z,97478.13
2022-10-21T12:55:17.027Z,97480.75
2022-10-21T12:57:18.293Z,97480.25
2022-10-21T12:59:19.598Z,97468.78
2022-10-21T13:01:20.980Z,97463.38
2022-10-21T13:03:22.282Z,97472.41
2022-10-21T13:05:23.571Z,97481.19
2022-10-21T13:07:24.839Z,97474.09
2022-10-21T13:09:26.137Z,97475.16
2022-10-21T13:11:27.412Z,97481.47
2022-10-21T13:13:28.902Z,97477.94
2022-10-21T13:15:30.234Z,97473.75
2022-10-21T13:17:31.612Z,97478.81
2022-10-21T13:19:33.238Z,97471.28
2022-10-21T13:21:34.563Z,97479.34
2022-10-21T13:23:35.873Z,97472.66
2022-10-21T13:25:37.137Z,97477.78
2022-10-21T13:27:38.624Z,97478.84
2022-10-21T13:29:39.996Z,97478.63
2022-10-21T13:31:41.269Z,97477.38
2022-10-21T13:33:42.622Z,97481.44
2022-10-21T13:35:44.051Z,97473.00
2022-10-21T13:37:45.378Z,97469.06
2022-10-21T13:39:46.851Z,97472.63
2022-10-21T13:41:48.122Z,97476.41
2022-10-21T13:43:49.435Z,97471.44
2022-10-21T13:45:50.740Z,97463.09
2022-10-21T13:47:57.704Z,97471.28
2022-10-21T13:49:59.001Z,97484.31
2022-10-21T13:52:00.299Z,97477.63
2022-10-21T13:54:01.635Z,97470.75
2022-10-21T13:56:02.974Z,97468.19
2022-10-21T13:58:04.286Z,97472.53
2022-10-21T14:00:05.559Z,97474.28
2022-10-21T14:02:06.851Z,97476.84
2022-10-21T14:04:08.759Z,97477.69
2022-10-21T14:06:10.228Z,97486.19
2022-10-21T14:08:11.518Z,97473.31
2022-10-21T14:10:12.802Z,97485.91
2022-10-21T14:12:14.070Z,97471.41
2022-10-21T14:14:15.363Z,97467.13
2022-10-21T14:16:16.623Z,97468.09
2022-10-21T14:18:17.879Z,97461.47
2022-10-21T14:20:22.160Z,97462.41
2022-10-21T14:22:23.438Z,97453.06
2022-10-21T14:24:24.719Z,97458.94
2022-10-21T14:26:30.854Z,97461.50
2022-10-21T14:28:32.134Z,97457.97
2022-10-21T14:30:33.475Z,97468.19
2022-10-21T14:32:34.794Z,97461.38
2022-10-21T14:34:36.080Z,97458.84
2022-10-21T14:36:37.378Z,97458.91
2022-10-21T14:38:38.654Z,97458.91
2022-10-21T14:40:39.975Z,97463.84
2022-10-21T14:42:41.494Z,97468.78
2022-10-21T14:44:42.998Z,97473.84
2022-10-21T14:46:44.343Z,97475.59
2022-10-21T14:48:45.611Z,97462.00
2022-10-21T14:50:46.883Z,97457.78
2022-10-21T14:52:48.223Z,97447.56
2022-10-21T14:54:49.538Z,97447.50
2022-10-21T14:56:50.831Z,97437.09
2022-10-21T14:58:52.220Z,97415.72
2022-10-21T15:00:53.494Z,97413.09
2022-10-21T15:02:54.787Z,97418.94
2022-10-21T15:04:56.094Z,97422.63
2022-10-21T15:06:57.374Z,97427.75
2022-10-21T15:09:01.529Z,97419.84
2022-10-21T15:11:04.007Z,97412.47
2022-10-21T15:13:05.501Z,97421.13
2022-10-21T15:15:06.786Z,97422.75
2022-10-21T15:17:08.067Z,97422.75
2022-10-21T15:19:09.432Z,97414.50
2022-10-21T15:21:10.705Z,97415.41
2022-10-21T15:23:12.869Z,97392.09
2022-10-21T15:25:14.398Z,97397.81
2022-10-21T15:27:15.669Z,97399.75
2022-10-21T15:29:16.942Z,97415.00
2022-10-21T15:31:18.291Z,97424.06
2022-10-21T15:33:19.614Z,97423.09
2022-10-21T15:35:20.892Z,97433.81
2022-10-21T15:37:22.254Z,97443.94
2022-10-21T15:39:23.595Z,97442.97
2022-10-21T15:41:25.016Z,97428.25
2022-10-21T15:43:26.291Z,97428.53
2022-10-21T15:45:27.606Z,97432.97
2022-10-21T15:47:28.926Z,97454.47
2022-10-21T15:49:30.221Z,97465.28
2022-10-21T15:51:31.486Z,97459.66
2022-10-21T15:53:32.776Z,97436.50
2022-10-21T15:55:34.051Z,97440.34
2022-10-21T15:57:35.328Z,97432.78
2022-10-21T15:59:36.638Z,97447.94
2022-10-21T16:01:37.958Z,97439.78
2022-10-21T16:03:39.264Z,97410.66
2022-10-21T16:05:40.554Z,97412.19
2022-10-21T16:07:41.902Z,97396.78
2022-10-21T16:09:43.195Z,97425.25
2022-10-21T16:11:54.839Z,97428.34
2022-10-21T16:14:00.077Z,97437.13
2022-10-21T16:16:01.549Z,97460.38
2022-10-21T16:18:02.819Z,97454.53
2022-10-21T16:20:04.165Z,97447.00
2022-10-21T16:22:08.842Z,97403.94
2022-10-21T16:24:10.118Z,97429.59
2022-10-21T16:26:11.395Z,97435.69
2022-10-21T16:28:12.709Z,97432.03
2022-10-21T16:30:13.994Z,97421.50
2022-10-21T16:32:15.477Z,97426.50
2022-10-21T16:34:16.761Z,97428.69
2022-10-21T16:36:22.356Z,97432.94
2022-10-21T16:38:23.655Z,97433.78
2022-10-21T16:40:24.954Z,97444.25
2022-10-21T16:42:26.242Z,97456.31
2022-10-21T16:44:28.753Z,97448.59
2022-10-21T16:46:30.195Z,97450.50
2022-10-21T16:48:31.495Z,97468.28
2022-10-21T16:50:35.454Z,97477.59
2022-10-21T16:52:37.805Z,97481.59
2022-10-21T16:54:39.327Z,97480.75
2022-10-21T16:56:40.850Z,97489.81
2022-10-21T16:58:42.192Z,97492.41
2022-10-21T17:00:44.617Z,97480.38
2022-10-21T17:02:45.945Z,97491.88
2022-10-21T17:04:50.166Z,97489.50
2022-10-21T17:06:51.711Z,97473.41
2022-10-21T17:08:53.028Z,97476.97
2022-10-21T17:10:54.366Z,97480.50
2022-10-21T17:12:58.935Z,97504.84
2022-10-21T17:15:00.344Z,97517.00
2022-10-21T17:17:01.638Z,97526.06
2022-10-21T17:19:05.595Z,97516.34
2022-10-21T17:21:06.864Z,97515.16
2022-10-21T17:23:10.212Z,97524.97
2022-10-21T17:25:11.504Z,97517.34
2022-10-21T17:27:14.717Z,97516.38
2022-10-21T17:29:18.594Z,97511.81
2022-10-21T17:31:20.097Z,97508.81
2022-10-21T17:33:21.383Z,97505.16
2022-10-21T17:35:25.808Z,97504.53
2022-10-21T17:37:29.991Z,97497.91
2022-10-21T17:39:31.267Z,97493.63
2022-10-21T17:41:32.572Z,97490.06
2022-10-21T17:43:33.876Z,97499.31
2022-10-21T17:45:35.189Z,97496.31
2022-10-21T17:47:36.986Z,97496.75
2022-10-21T17:49:39.138Z,97500.91
2022-10-21T17:51:40.445Z,97506.66
2022-10-21T17:53:41.768Z,97513.53
2022-10-21T17:55:43.057Z,97515.75
2022-10-21T17:57:44.375Z,97499.81
2022-10-21T17:59:45.854Z,97492.06
2022-10-21T18:01:47.941Z,97495.34
2022-10-21T18:03:49.261Z,97496.72
2022-10-21T18:05:50.767Z,97498.91
2022-10-21T18:07:52.063Z,97499.28
2022-10-21T18:09:53.407Z,97488.19
2022-10-21T18:11:54.769Z,97491.84
2022-10-21T18:13:56.242Z,97484.63
2022-10-21T18:15:57.684Z,97481.09
2022-10-21T18:17:59.014Z,97484.19
2022-10-21T18:20:00.311Z,97489.75
2022-10-21T18:22:01.622Z,97483.00
2022-10-21T18:24:02.916Z,97482.97
2022-10-21T18:26:04.236Z,97483.31
2022-10-21T18:28:05.542Z,97470.03
2022-10-21T18:30:06.863Z,97468.25
2022-10-21T18:32:12.451Z,97469.84
2022-10-21T18:34:16.027Z,97450.09
2022-10-21T18:36:17.357Z,97456.81
2022-10-21T18:38:18.631Z,97463.78
2022-10-21T18:40:19.934Z,97467.28
2022-10-21T18:42:21.201Z,97474.09
2022-10-21T18:44:22.535Z,97461.22
2022-10-21T18:46:23.838Z,97458.78
2022-10-21T18:48:25.113Z,97451.44
2022-10-21T18:50:26.417Z,97463.84
2022-10-21T18:52:27.690Z,97464.06
2022-10-21T18:54:28.987Z,97458.22
2022-10-21T18:56:30.318Z,97456.69
2022-10-21T18:58:31.802Z,97462.38
2022-10-21T19:00:33.083Z,97461.44
2022-10-21T19:02:34.386Z,97447.94
2022-10-21T19:04:35.650Z,97452.03
2022-10-21T19:06:37.050Z,97449.69
2022-10-21T19:08:38.707Z,97440.38
2022-10-21T19:10:42.080Z,97440.41
2022-10-21T19:12:43.350Z,97440.69
2022-10-21T19:14:44.696Z,97450.69
2022-10-21T19:16:55.058Z,97450.13
2022-10-21T19:18:56.354Z,97439.00
2022-10-21T19:20:57.728Z,97438.66
2022-10-21T19:22:59.028Z,97428.91
2022-10-21T19:25:00.333Z,97436.34
2022-10-21T19:27:01.635Z,97428.78
2022-10-21T19:29:03.185Z,97435.78
2022-10-21T19:31:10.158Z,97430.94
2022-10-21T19:33:11.464Z,97439.53
2022-10-21T19:35:12.770Z,97427.69
2022-10-21T19:37:14.042Z,97439.03
2022-10-21T19:39:15.419Z,97441.72
2022-10-21T19:41:16.694Z,97437.81
2022-10-21T19:43:17.971Z,97439.59
2022-10-21T19:45:19.252Z,97429.47
2022-10-21T19:47:20.531Z,97438.88
2022-10-21T19:49:21.869Z,97436.47
2022-10-21T19:51:23.152Z,97441.06
2022-10-21T19:53:24.421Z,97450.66
2022-10-21T19:55:25.740Z,97453.00
2022-10-21T19:57:27.010Z,97454.44
2022-10-21T19:59:28.272Z,97449.59
2022-10-21T20:01:29.688Z,97443.22
2022-10-21T20:03:31.034Z,97446.03
2022-10-21T20:05:34.456Z,97447.09
2022-10-21T20:07:35.732Z,97442.03
2022-10-21T20:09:38.841Z,97438.66
2022-10-21T20:11:40.447Z,97441.22
2022-10-21T20:13:41.770Z,97440.25
2022-10-21T20:15:43.063Z,97460.66
2022-10-21T20:17:44.353Z,97443.59
2022-10-21T20:19:45.637Z,97455.69
2022-10-21T20:21:47.131Z,97456.56
2022-10-21T20:23:51.267Z,97460.16
2022-10-21T20:25:52.554Z,97450.97
2022-10-21T20:27:53.826Z,97455.63
2022-10-21T20:29:55.644Z,97448.81
2022-10-21T20:32:00.081Z,97454.78
2022-10-21T20:34:01.407Z,97461.72
2022-10-21T20:36:02.667Z,97463.63
2022-10-21T20:38:03.943Z,97461.72
2022-10-21T20:40:05.240Z,97462.63
2022-10-21T20:42:06.623Z,97453.72
2022-10-21T20:44:07.894Z,97455.94
2022-10-21T20:46:09.155Z,97447.81
2022-10-21T20:48:10.469Z,97442.84
2022-10-21T20:50:11.746Z,97452.91
2022-10-21T20:52:13.002Z,97449.19
2022-10-21T20:54:14.342Z,97440.63
2022-10-21T20:56:15.623Z,97451.59
2022-10-21T20:58:16.934Z,97447.00
2022-10-21T21:00:18.253Z,97446.03
2022-10-21T21:02:19.522Z,97440.00
2022-10-21T21:04:21.947Z,97434.44
2022-10-21T21:06:23.254Z,97452.69
2022-10-21T21:08:24.582Z,97441.69
2022-10-21T21:10:25.889Z,97442.31
2022-10-21T21:12:27.218Z,97447.47
2022-10-21T21:14:31.311Z,97448.41
2022-10-21T21:16:32.582Z,97444.41
2022-10-21T21:18:33.899Z,97443.38
2022-10-21T21:20:35.178Z,97450.44
2022-10-21T21:22:37.456Z,97441.03
2022-10-21T21:24:39.020Z,97431.19
2022-10-21T21:26:41.253Z,97438.34
2022-10-21T21:28:42.547Z,97440.41
2022-10-21T21:30:43.818Z,97429.44
2022-10-21T21:32:45.309Z,97427.19
2022-10-21T21:34:54.231Z,97441.78
2022-10-21T21:36:55.838Z,97443.53
2022-10-21T21:38:57.158Z,97441.41
2022-10-21T21:40:59.338Z,97436.63
2022-10-21T21:43:00.606Z,97442.97
2022-10-21T21:45:01.962Z,97444.56
2022-10-21T21:47:03.314Z,97445.25
2022-10-21T21:49:06.079Z,97435.06
2022-10-21T21:51:09.662Z,97435.00
2022-10-21T21:53:10.926Z,97421.19
2022-10-21T21:55:12.236Z,97430.47
2022-10-21T21:57:27.465Z,97424.63
2022-10-21T21:59:29.281Z,97420.88
2022-10-21T22:01:30.655Z,97427.41
2022-10-21T22:03:32.010Z,97442.81
2022-10-21T22:05:33.375Z,97437.41
2022-10-21T22:07:34.659Z,97441.38
2022-10-21T22:09:35.933Z,97446.09
2022-10-21T22:11:37.415Z,97444.47
2022-10-21T22:13:38.666Z,97449.19
2022-10-21T22:15:48.464Z,97450.19
2022-10-21T22:17:50.075Z,97457.03
2022-10-21T22:19:53.875Z,97455.88
2022-10-21T22:21:55.363Z,97464.84
2022-10-21T22:23:56.714Z,97444.00
2022-10-21T22:25:58.002Z,97443.38
2022-10-21T22:27:59.275Z,97443.75
2022-10-21T22:30:00.550Z,97440.38
2022-10-21T22:32:01.809Z,97442.97
2022-10-21T22:34:04.365Z,97440.38
2022-10-21T22:36:07.926Z,97442.81
2022-10-21T22:38:09.253Z,97446.19
2022-10-21T22:40:10.531Z,97435.00
2022-10-21T22:42:11.987Z,97431.16
2022-10-21T22:44:13.268Z,97430.13
2022-10-21T22:46:29.143Z,97423.09
2022-10-21T22:48:30.991Z,97429.34
2022-10-21T22:50:32.270Z,97419.13
2022-10-21T22:52:33.539Z,97415.28
2022-10-21T22:54:49.011Z,97411.69
2022-10-21T22:56:50.985Z,97415.13
2022-10-21T22:58:52.294Z,97417.69
2022-10-21T23:02:59.880Z,97415.09
2022-10-21T23:05:01.185Z,97412.72
2022-10-21T23:07:02.523Z,97422.94
2022-10-21T23:09:03.952Z,97419.72
2022-10-21T23:11:05.299Z,97422.16
2022-10-21T23:13:06.635Z,97412.63
2022-10-21T23:15:07.963Z,97408.09
2022-10-21T23:17:09.679Z,97405.44
2022-10-21T23:21:17.122Z,97414.81
2022-10-21T23:23:18.417Z,97436.22
2022-10-21T23:25:19.837Z,97419.28
2022-10-21T23:27:21.169Z,97421.94
2022-10-21T23:29:22.488Z,97427.94
2022-10-21T23:31:23.771Z,97415.34
2022-10-21T23:33:25.070Z,97411.28
2022-10-21T23:35:26.378Z,97409.69
2022-10-21T23:37:27.674Z,97401.31
2022-10-21T23:39:28.921Z,97403.97
2022-10-21T23:41:30.230Z,97407.47
2022-10-21T23:43:31.553Z,97387.13
2022-10-21T23:45:32.904Z,97370.13
2022-10-21T23:47:34.206Z,97376.91
2022-10-21T23:49:35.516Z,97374.94
2022-10-21T23:51:36.802Z,97377.38
2022-10-21T23:53:38.086Z,97378.22
2022-10-21T23:55:39.359Z,97372.19
2022-10-21T23:57:40.856Z,97366.19
2022-10-21T23:59:42.386Z,97366.97
